sensor_id;sensor_type;location;lat;lon;timestamp;pressure;altitude;pressure_sealevel;temperature;humidity
3254;BME280;1639;42.804;23.342;2022-09-16T00:01:19;71485.53;;;-148.52;50.71
3254;BME280;1639;42.804;23.342;2022-09-16T00:03:45;71479.31;;;-148.52;51.27
3254;BME280;1639;42.804;23.342;2022-09-16T00:06:19;71497.94;;;-148.52;51.47
3254;BME280;1639;42.804;23.342;2022-09-16T00:08:47;71504.13;;;-148.52;51.82
3254;BME280;1639;42.804;23.342;2022-09-16T00:11:13;71512.41;;;-148.52;51.75
3254;BME280;1639;42.804;23.342;2022-09-16T00:13:38;71514.47;;;-148.52;50.90
3254;BME280;1639;42.804;23.342;2022-09-16T00:16:10;71504.13;;;-148.52;51.32
3254;BME280;1639;42.804;23.342;2022-09-16T00:18:35;71518.59;;;-148.52;50.94
3254;BME280;1639;42.804;23.342;2022-09-16T00:21:01;71520.66;;;-148.52;51.16
3254;BME280;1639;42.804;23.342;2022-09-16T00:23:26;71522.72;;;-148.52;51.12
3254;BME280;1639;42.804;23.342;2022-09-16T00:25:53;71516.53;;;-148.52;51.36
3254;BME280;1639;42.804;23.342;2022-09-16T00:28:20;71493.78;;;-148.52;50.94
3254;BME280;1639;42.804;23.342;2022-09-16T00:30:46;71479.31;;;-148.52;50.75
3254;BME280;1639;42.804;23.342;2022-09-16T00:33:12;71489.66;;;-148.52;51.15
3254;BME280;1639;42.804;23.342;2022-09-16T00:35:38;71487.59;;;-148.52;50.72
3254;BME280;1639;42.804;23.342;2022-09-16T00:38:03;71491.72;;;-148.52;51.51
3254;BME280;1639;42.804;23.342;2022-09-16T00:40:28;71485.53;;;-148.52;52.06
3254;BME280;1639;42.804;23.342;2022-09-16T00:42:54;71518.59;;;-148.52;53.12
3254;BME280;1639;42.804;23.342;2022-09-16T00:45:22;71516.53;;;-148.52;53.12
3254;BME280;1639;42.804;23.342;2022-09-16T00:47:50;71524.81;;;-148.52;52.82
3254;BME280;1639;42.804;23.342;2022-09-16T00:52:55;71520.66;;;-148.52;51.65
3254;BME280;1639;42.804;23.342;2022-09-16T00:55:26;71547.53;;;-148.52;52.32
3254;BME280;1639;42.804;23.342;2022-09-16T00:57:56;71570.28;;;-148.52;52.69
3254;BME280;1639;42.804;23.342;2022-09-16T01:00:24;71562.03;;;-148.52;52.17
3254;BME280;1639;42.804;23.342;2022-09-16T01:02:50;71545.47;;;-148.52;50.90
3254;BME280;1639;42.804;23.342;2022-09-16T01:05:19;71506.19;;;-148.52;49.75
3254;BME280;1639;42.804;23.342;2022-09-16T01:07:48;71489.66;;;-148.52;49.31
3254;BME280;1639;42.804;23.342;2022-09-16T01:10:17;71473.13;;;-148.52;48.86
3254;BME280;1639;42.804;23.342;2022-09-16T01:12:45;71446.25;;;-148.52;48.29
3254;BME280;1639;42.804;23.342;2022-09-16T01:15:14;71427.63;;;-148.52;47.71
3254;BME280;1639;42.804;23.342;2022-09-16T01:17:55;71433.84;;;-148.52;47.76
3254;BME280;1639;42.804;23.342;2022-09-16T01:37:56;71541.34;;;-148.52;51.17
3254;BME280;1639;42.804;23.342;2022-09-16T01:40:48;71568.22;;;-148.52;52.19
3254;BME280;1639;42.804;23.342;2022-09-16T01:49:01;71644.72;;;-148.52;54.39
3254;BME280;1639;42.804;23.342;2022-09-16T01:51:38;71630.25;;;-148.52;54.49
3254;BME280;1639;42.804;23.342;2022-09-16T01:54:33;71626.09;;;-148.52;54.07
3254;BME280;1639;42.804;23.342;2022-09-16T01:57:10;71615.78;;;-148.52;54.04
3254;BME280;1639;42.804;23.342;2022-09-16T01:59:43;71609.56;;;-148.52;53.54
3254;BME280;1639;42.804;23.342;2022-09-16T02:02:34;71615.78;;;-148.52;53.52
3254;BME280;1639;42.804;23.342;2022-09-16T02:05:06;71638.50;;;-148.52;53.97
3254;BME280;1639;42.804;23.342;2022-09-16T02:07:35;71640.59;;;-148.52;54.45
3254;BME280;1639;42.804;23.342;2022-09-16T02:10:12;71655.06;;;-148.52;54.84
3254;BME280;1639;42.804;23.342;2022-09-16T02:12:42;71646.78;;;-148.52;54.87
3254;BME280;1639;42.804;23.342;2022-09-16T02:15:13;71663.31;;;-148.52;55.53
3254;BME280;1639;42.804;23.342;2022-09-16T02:17:49;71681.94;;;-148.52;56.64
3254;BME280;1639;42.804;23.342;2022-09-16T02:20:19;71677.78;;;-148.52;56.58
3254;BME280;1639;42.804;23.342;2022-09-16T02:22:58;71681.94;;;-148.52;56.25
3254;BME280;1639;42.804;23.342;2022-09-16T02:25:27;71690.19;;;-148.52;56.53
3254;BME280;1639;42.804;23.342;2022-09-16T02:27:54;71694.34;;;-148.52;56.59
3254;BME280;1639;42.804;23.342;2022-09-16T02:30:22;71700.53;;;-148.52;56.48
3254;BME280;1639;42.804;23.342;2022-09-16T02:32:53;71702.59;;;-148.52;56.85
3254;BME280;1639;42.804;23.342;2022-09-16T02:35:21;71708.81;;;-148.52;57.04
3254;BME280;1639;42.804;23.342;2022-09-16T02:37:49;71715.00;;;-148.52;57.42
3254;BME280;1639;42.804;23.342;2022-09-16T02:40:21;71754.28;;;-148.52;58.21
3254;BME280;1639;42.804;23.342;2022-09-16T02:42:48;71750.16;;;-148.52;58.42
3254;BME280;1639;42.804;23.342;2022-09-16T02:45:14;71739.81;;;-148.52;57.65
3254;BME280;1639;42.804;23.342;2022-09-16T02:48:07;71735.69;;;-148.52;57.49
3254;BME280;1639;42.804;23.342;2022-09-16T02:50:37;71727.41;;;-148.52;57.30
3254;BME280;1639;42.804;23.342;2022-09-16T02:53:28;71723.28;;;-148.52;57.23
3254;BME280;1639;42.804;23.342;2022-09-16T02:56:01;71715.00;;;-148.52;56.47
3254;BME280;1639;42.804;23.342;2022-09-16T02:58:28;71715.00;;;-148.52;56.40
3254;BME280;1639;42.804;23.342;2022-09-16T03:00:54;71719.16;;;-148.52;56.94
3254;BME280;1639;42.804;23.342;2022-09-16T03:03:21;71729.50;;;-148.52;57.33
3254;BME280;1639;42.804;23.342;2022-09-16T03:08:30;71760.50;;;-148.52;58.30
3254;BME280;1639;42.804;23.342;2022-09-16T03:11:00;71764.63;;;-148.52;58.31
3254;BME280;1639;42.804;23.342;2022-09-16T03:13:39;71779.09;;;-148.52;58.33
3254;BME280;1639;42.804;23.342;2022-09-16T03:22:41;71766.69;;;-148.52;58.36
3254;BME280;1639;42.804;23.342;2022-09-16T03:30:19;71704.69;;;-148.52;56.77
3254;BME280;1639;42.804;23.342;2022-09-16T03:32:53;71688.13;;;-148.52;57.01
3254;BME280;1639;42.804;23.342;2022-09-16T03:35:33;71715.00;;;-148.52;58.03
3254;BME280;1639;42.804;23.342;2022-09-16T03:38:01;71723.28;;;-148.52;57.42
3254;BME280;1639;42.804;23.342;2022-09-16T03:40:28;71770.84;;;-148.52;59.06
3254;BME280;1639;42.804;23.342;2022-09-16T03:42:56;71785.31;;;-148.52;59.55
3254;BME280;1639;42.804;23.342;2022-09-16T03:45:22;71803.91;;;-148.52;60.51
3254;BME280;1639;42.804;23.342;2022-09-16T03:47:49;71793.59;;;-148.52;60.05
3254;BME280;1639;42.804;23.342;2022-09-16T03:50:16;71781.19;;;-148.52;60.16
3254;BME280;1639;42.804;23.342;2022-09-16T03:52:41;71764.63;;;-148.52;59.40
3254;BME280;1639;42.804;23.342;2022-09-16T03:55:08;71739.81;;;-148.52;58.86
3254;BME280;1639;42.804;23.342;2022-09-16T03:57:35;71762.56;;;-148.52;59.27
3254;BME280;1639;42.804;23.342;2022-09-16T04:00:00;71768.78;;;-148.52;59.14
3254;BME280;1639;42.804;23.342;2022-09-16T04:02:26;71797.72;;;-148.52;59.93
3254;BME280;1639;42.804;23.342;2022-09-16T04:04:51;71797.72;;;-148.52;59.83
3254;BME280;1639;42.804;23.342;2022-09-16T04:07:17;71787.38;;;-148.52;60.00
3254;BME280;1639;42.804;23.342;2022-09-16T04:09:42;71764.63;;;-148.52;60.33
3254;BME280;1639;42.804;23.342;2022-09-16T04:12:08;71752.22;;;-148.52;60.31
3254;BME280;1639;42.804;23.342;2022-09-16T04:14:34;71764.63;;;-148.52;62.47
3254;BME280;1639;42.804;23.342;2022-09-16T04:17:00;71772.91;;;-148.52;63.10
3254;BME280;1639;42.804;23.342;2022-09-16T04:19:26;71758.44;;;-148.52;62.62
3254;BME280;1639;42.804;23.342;2022-09-16T04:21:51;71743.97;;;-148.52;62.21
3254;BME280;1639;42.804;23.342;2022-09-16T04:24:17;71741.88;;;-148.52;61.98
3254;BME280;1639;42.804;23.342;2022-09-16T04:26:43;71733.63;;;-148.52;61.88
3254;BME280;1639;42.804;23.342;2022-09-16T04:29:09;71725.34;;;-148.52;60.72
3254;BME280;1639;42.804;23.342;2022-09-16T04:31:34;71748.09;;;-148.52;61.60
3254;BME280;1639;42.804;23.342;2022-09-16T04:34:04;71768.78;;;-148.52;62.82
3254;BME280;1639;42.804;23.342;2022-09-16T04:36:29;71754.28;;;-148.52;60.82
3254;BME280;1639;42.804;23.342;2022-09-16T04:38:55;71731.56;;;-148.52;60.62
3254;BME280;1639;42.804;23.342;2022-09-16T04:41:22;71729.50;;;-148.52;60.74
3254;BME280;1639;42.804;23.342;2022-09-16T04:43:53;71729.50;;;-148.52;61.05
3254;BME280;1639;42.804;23.342;2022-09-16T04:46:20;71727.41;;;-148.52;60.13
3254;BME280;1639;42.804;23.342;2022-09-16T04:48:47;71719.16;;;-148.52;60.33
3254;BME280;1639;42.804;23.342;2022-09-16T04:51:12;71708.81;;;-148.52;60.27
3254;BME280;1639;42.804;23.342;2022-09-16T04:53:39;71690.19;;;-148.52;60.22
3254;BME280;1639;42.804;23.342;2022-09-16T04:56:13;71686.06;;;-148.52;60.74
3254;BME280;1639;42.804;23.342;2022-09-16T04:58:44;71686.06;;;-148.52;60.72
3254;BME280;1639;42.804;23.342;2022-09-16T05:01:13;71669.53;;;-148.52;60.30
3254;BME280;1639;42.804;23.342;2022-09-16T05:03:46;71653.00;;;-148.52;59.95
3254;BME280;1639;42.804;23.342;2022-09-16T05:06:20;71653.00;;;-148.52;59.96
3254;BME280;1639;42.804;23.342;2022-09-16T05:08:46;71661.25;;;-148.52;60.39
3254;BME280;1639;42.804;23.342;2022-09-16T05:11:13;71673.66;;;-148.52;59.06
3254;BME280;1639;42.804;23.342;2022-09-16T05:13:39;71669.53;;;-148.52;58.56
3254;BME280;1639;42.804;23.342;2022-09-16T05:16:07;71659.19;;;-148.52;58.77
3254;BME280;1639;42.804;23.342;2022-09-16T05:18:37;71626.09;;;-148.52;58.83
3254;BME280;1639;42.804;23.342;2022-09-16T05:21:05;71624.03;;;-148.52;58.14
3254;BME280;1639;42.804;23.342;2022-09-16T05:23:31;71611.63;;;-148.52;57.03
3254;BME280;1639;42.804;23.342;2022-09-16T05:26:03;71628.19;;;-148.52;58.00
3254;BME280;1639;42.804;23.342;2022-09-16T05:28:28;71619.91;;;-148.52;58.47
3254;BME280;1639;42.804;23.342;2022-09-16T05:30:54;71593.03;;;-148.52;57.79
3254;BME280;1639;42.804;23.342;2022-09-16T05:33:19;71595.09;;;-148.52;58.43
3254;BME280;1639;42.804;23.342;2022-09-16T05:35:44;71582.69;;;-148.52;57.80
3254;BME280;1639;42.804;23.342;2022-09-16T05:38:11;71562.03;;;-148.52;57.26
3254;BME280;1639;42.804;23.342;2022-09-16T05:40:36;71559.94;;;-148.52;57.00
3254;BME280;1639;42.804;23.342;2022-09-16T05:43:02;71557.88;;;-148.52;57.23
3254;BME280;1639;42.804;23.342;2022-09-16T05:45:28;71562.03;;;-148.52;58.39
3254;BME280;1639;42.804;23.342;2022-09-16T05:47:53;71555.81;;;-148.52;58.35
3254;BME280;1639;42.804;23.342;2022-09-16T05:50:19;71541.34;;;-148.52;59.21
3254;BME280;1639;42.804;23.342;2022-09-16T05:52:45;71549.63;;;-148.52;58.86
3254;BME280;1639;42.804;23.342;2022-09-16T05:55:10;71543.41;;;-148.52;58.52
3254;BME280;1639;42.804;23.342;2022-09-16T05:57:36;71531.00;;;-148.52;57.77
3254;BME280;1639;42.804;23.342;2022-09-16T06:00:03;71526.88;;;-148.52;58.18
3254;BME280;1639;42.804;23.342;2022-09-16T06:02:29;71520.66;;;-148.52;56.56
3254;BME280;1639;42.804;23.342;2022-09-16T06:04:54;71508.25;;;-148.52;56.71
3254;BME280;1639;42.804;23.342;2022-09-16T06:07:20;71483.44;;;-148.52;56.57
3254;BME280;1639;42.804;23.342;2022-09-16T06:09:45;71458.66;;;-148.52;56.25
3254;BME280;1639;42.804;23.342;2022-09-16T06:12:11;71417.28;;;-148.52;55.46
3254;BME280;1639;42.804;23.342;2022-09-16T06:14:36;71392.50;;;-148.52;54.56
3254;BME280;1639;42.804;23.342;2022-09-16T06:17:02;71361.47;;;-148.52;53.31
3254;BME280;1639;42.804;23.342;2022-09-16T06:19:27;71316.00;;;-148.52;51.92
3254;BME280;1639;42.804;23.342;2022-09-16T06:21:53;71276.72;;;-148.52;51.10
3254;BME280;1639;42.804;23.342;2022-09-16T06:24:19;71260.19;;;-148.52;50.48
3254;BME280;1639;42.804;23.342;2022-09-16T06:26:46;71229.16;;;-148.52;49.80
3254;BME280;1639;42.804;23.342;2022-09-16T06:29:14;71231.22;;;-148.52;51.42
3254;BME280;1639;42.804;23.342;2022-09-16T06:31:40;71216.75;;;-148.52;50.96
3254;BME280;1639;42.804;23.342;2022-09-16T06:34:06;71210.56;;;-148.52;50.89
3254;BME280;1639;42.804;23.342;2022-09-16T06:36:35;71198.16;;;-148.52;49.75
3254;BME280;1639;42.804;23.342;2022-09-16T06:39:01;71165.09;;;-148.52;49.03
3254;BME280;1639;42.804;23.342;2022-09-16T06:41:27;71136.13;;;-148.52;48.18
3254;BME280;1639;42.804;23.342;2022-09-16T06:43:52;71115.47;;;-148.52;47.32
3254;BME280;1639;42.804;23.342;2022-09-16T06:46:20;71140.28;;;-148.52;48.27
3254;BME280;1639;42.804;23.342;2022-09-16T06:48:48;71152.69;;;-148.52;48.15
3254;BME280;1639;42.804;23.342;2022-09-16T06:51:20;71173.34;;;-148.52;48.54
3254;BME280;1639;42.804;23.342;2022-09-16T06:53:47;71146.47;;;-148.52;48.96
3254;BME280;1639;42.804;23.342;2022-09-16T06:56:15;71111.34;;;-148.52;48.06
3254;BME280;1639;42.804;23.342;2022-09-16T06:58:42;71067.91;;;-148.52;46.51
3254;BME280;1639;42.804;23.342;2022-09-16T07:01:12;71032.78;;;-148.52;45.62
3254;BME280;1639;42.804;23.342;2022-09-16T07:03:44;70991.44;;;-148.52;44.91
3254;BME280;1639;42.804;23.342;2022-09-16T07:06:10;70976.97;;;-148.52;44.58
3254;BME280;1639;42.804;23.342;2022-09-16T07:08:37;70948.03;;;-148.52;43.40
3254;BME280;1639;42.804;23.342;2022-09-16T07:11:11;70921.16;;;-148.52;41.64
3254;BME280;1639;42.804;23.342;2022-09-16T07:13:37;70912.88;;;-148.52;42.38
3254;BME280;1639;42.804;23.342;2022-09-16T07:16:06;70902.53;;;-148.52;40.56
3254;BME280;1639;42.804;23.342;2022-09-16T07:18:32;70871.53;;;-148.52;41.80
3254;BME280;1639;42.804;23.342;2022-09-16T07:23:29;70859.13;;;-148.52;41.15
3254;BME280;1639;42.804;23.342;2022-09-16T07:26:09;70867.41;;;-148.52;40.63
3254;BME280;1639;42.804;23.342;2022-09-16T07:28:36;70865.34;;;-148.52;40.81
3254;BME280;1639;42.804;23.342;2022-09-16T07:31:03;70846.75;;;-148.52;39.62
3254;BME280;1639;42.804;23.342;2022-09-16T07:33:30;70817.78;;;-148.52;38.90
3254;BME280;1639;42.804;23.342;2022-09-16T07:35:58;70780.59;;;-148.52;38.44
3254;BME280;1639;42.804;23.342;2022-09-16T07:38:24;70759.91;;;-148.52;38.44
3254;BME280;1639;42.804;23.342;2022-09-16T07:40:49;70774.38;;;-148.52;37.46
3254;BME280;1639;42.804;23.342;2022-09-16T07:43:15;70735.13;;;-148.52;37.88
3254;BME280;1639;42.804;23.342;2022-09-16T07:45:40;70704.09;;;-148.52;37.18
3254;BME280;1639;42.804;23.342;2022-09-16T07:48:06;70679.31;;;-148.52;36.96
3254;BME280;1639;42.804;23.342;2022-09-16T07:50:31;70708.25;;;-148.52;36.91
3254;BME280;1639;42.804;23.342;2022-09-16T07:52:56;70671.03;;;-148.52;36.95
3254;BME280;1639;42.804;23.342;2022-09-16T07:55:22;70633.84;;;-148.52;37.33
3254;BME280;1639;42.804;23.342;2022-09-16T07:57:47;70611.09;;;-148.52;35.83
3254;BME280;1639;42.804;23.342;2022-09-16T08:00:13;70596.63;;;-148.52;34.99
3254;BME280;1639;42.804;23.342;2022-09-16T08:02:40;70578.03;;;-148.52;35.40
3254;BME280;1639;42.804;23.342;2022-09-16T08:05:06;70557.34;;;-148.52;34.99
3254;BME280;1639;42.804;23.342;2022-09-16T08:07:33;70532.56;;;-148.52;34.52
3254;BME280;1639;42.804;23.342;2022-09-16T08:09:58;70524.28;;;-148.52;34.72
3254;BME280;1639;42.804;23.342;2022-09-16T08:12:24;70522.22;;;-148.52;34.06
3254;BME280;1639;42.804;23.342;2022-09-16T08:14:49;70516.00;;;-148.52;34.78
3254;BME280;1639;42.804;23.342;2022-09-16T08:17:15;70503.63;;;-148.52;34.06
3254;BME280;1639;42.804;23.342;2022-09-16T08:19:40;70503.63;;;-148.52;33.91
3254;BME280;1639;42.804;23.342;2022-09-16T08:22:06;70470.53;;;-148.52;33.16
3254;BME280;1639;42.804;23.342;2022-09-16T08:24:31;70441.59;;;-148.52;34.04
3254;BME280;1639;42.804;23.342;2022-09-16T08:26:56;70433.34;;;-148.52;33.50
3254;BME280;1639;42.804;23.342;2022-09-16T08:29:22;70431.28;;;-148.52;33.06
3254;BME280;1639;42.804;23.342;2022-09-16T08:31:50;70435.41;;;-148.52;32.49
3254;BME280;1639;42.804;23.342;2022-09-16T08:34:15;70439.53;;;-148.52;32.49
3254;BME280;1639;42.804;23.342;2022-09-16T08:36:41;70458.13;;;-148.52;33.14
3254;BME280;1639;42.804;23.342;2022-09-16T08:39:08;70458.13;;;-148.52;32.45
3254;BME280;1639;42.804;23.342;2022-09-16T08:50:03;70485.00;;;-148.52;32.81
3254;BME280;1639;42.804;23.342;2022-09-16T08:52:32;70489.16;;;-148.52;33.18
3254;BME280;1639;42.804;23.342;2022-09-16T08:55:09;70493.28;;;-148.52;33.16
3254;BME280;1639;42.804;23.342;2022-09-16T08:57:47;70505.69;;;-148.52;33.45
3254;BME280;1639;42.804;23.342;2022-09-16T09:00:18;70511.88;;;-148.52;33.70
3254;BME280;1639;42.804;23.342;2022-09-16T09:02:54;70516.00;;;-148.52;34.06
3254;BME280;1639;42.804;23.342;2022-09-16T09:05:53;70511.88;;;-148.52;34.12
3254;BME280;1639;42.804;23.342;2022-09-16T09:08:39;70524.28;;;-148.52;33.71
3254;BME280;1639;42.804;23.342;2022-09-16T09:16:42;70544.94;;;-148.52;33.74
3254;BME280;1639;42.804;23.342;2022-09-16T09:30:48;70569.75;;;-148.52;34.38
3254;BME280;1639;42.804;23.342;2022-09-16T09:39:10;70538.75;;;-148.52;33.33
3254;BME280;1639;42.804;23.342;2022-09-16T09:41:59;70540.81;;;-148.52;33.94
3254;BME280;1639;42.804;23.342;2022-09-16T09:44:49;70516.00;;;-148.52;34.30
3254;BME280;1639;42.804;23.342;2022-09-16T09:47:31;70505.69;;;-148.52;34.20
3254;BME280;1639;42.804;23.342;2022-09-16T09:50:07;70524.28;;;-148.52;33.57
3254;BME280;1639;42.804;23.342;2022-09-16T09:55:18;70557.34;;;-148.52;34.46
3254;BME280;1639;42.804;23.342;2022-09-16T10:00:17;70555.28;;;-148.52;34.62
3254;BME280;1639;42.804;23.342;2022-09-16T10:02:45;70569.75;;;-148.52;35.59
3254;BME280;1639;42.804;23.342;2022-09-16T10:07:47;70615.22;;;-148.52;35.96
3254;BME280;1639;42.804;23.342;2022-09-16T10:10:16;70652.44;;;-148.52;37.18
3254;BME280;1639;42.804;23.342;2022-09-16T10:12:43;70693.78;;;-148.52;38.82
3254;BME280;1639;42.804;23.342;2022-09-16T10:15:28;70759.91;;;-148.52;40.82
3254;BME280;1639;42.804;23.342;2022-09-16T10:17:57;70838.47;;;-148.52;43.57
3254;BME280;1639;42.804;23.342;2022-09-16T10:20:33;70896.34;;;-148.52;46.44
3254;BME280;1639;42.804;23.342;2022-09-16T10:25:25;71028.66;;;-148.52;52.51
3254;BME280;1639;42.804;23.342;2022-09-16T10:28:00;71094.78;;;-148.52;52.80
3254;BME280;1639;42.804;23.342;2022-09-16T10:30:29;71173.34;;;-148.52;54.37
3254;BME280;1639;42.804;23.342;2022-09-16T10:33:04;71284.97;;;-148.52;56.54
3254;BME280;1639;42.804;23.342;2022-09-16T10:35:36;71406.97;;;-148.52;61.49
3254;BME280;1639;42.804;23.342;2022-09-16T10:40:35;71578.56;;;-148.52;69.76
3254;BME280;1639;42.804;23.342;2022-09-16T10:43:05;71613.69;;;-148.52;73.26
3254;BME280;1639;42.804;23.342;2022-09-16T10:45:52;71628.19;;;-148.52;75.28
3254;BME280;1639;42.804;23.342;2022-09-16T10:48:24;71642.66;;;-148.52;77.58
3254;BME280;1639;42.804;23.342;2022-09-16T10:51:00;71646.78;;;-148.52;77.78
3254;BME280;1639;42.804;23.342;2022-09-16T10:53:43;71659.19;;;-148.52;77.28
3254;BME280;1639;42.804;23.342;2022-09-16T10:56:18;71648.84;;;-148.52;76.96
3254;BME280;1639;42.804;23.342;2022-09-16T10:58:44;71655.06;;;-148.52;78.27
3254;BME280;1639;42.804;23.342;2022-09-16T11:12:58;71539.28;;;-148.52;76.87
3254;BME280;1639;42.804;23.342;2022-09-16T11:21:09;71489.66;;;-148.52;76.68
3254;BME280;1639;42.804;23.342;2022-09-16T11:38:27;71367.69;;;-148.52;73.27
3254;BME280;1639;42.804;23.342;2022-09-16T11:41:11;71347.00;;;-148.52;71.24
3254;BME280;1639;42.804;23.342;2022-09-16T11:52:00;71295.31;;;-148.52;68.67
3254;BME280;1639;42.804;23.342;2022-09-16T11:57:11;71235.38;;;-148.52;65.35
3254;BME280;1639;42.804;23.342;2022-09-16T12:02:22;71237.44;;;-148.52;64.01
3254;BME280;1639;42.804;23.342;2022-09-16T12:04:55;71227.09;;;-148.52;66.03
3254;BME280;1639;42.804;23.342;2022-09-16T12:07:37;71256.03;;;-148.52;62.74
3254;BME280;1639;42.804;23.342;2022-09-16T12:13:10;71218.84;;;-148.52;59.21
3254;BME280;1639;42.804;23.342;2022-09-16T12:18:20;71165.09;;;-148.52;59.32
3254;BME280;1639;42.804;23.342;2022-09-16T12:21:17;71142.34;;;-148.52;57.95
3254;BME280;1639;42.804;23.342;2022-09-16T12:23:50;71148.53;;;-148.52;57.99
3254;BME280;1639;42.804;23.342;2022-09-16T12:26:24;71140.28;;;-148.52;58.66
3254;BME280;1639;42.804;23.342;2022-09-16T12:28:59;71148.53;;;-148.52;58.69
3254;BME280;1639;42.804;23.342;2022-09-16T12:31:45;71148.53;;;-148.52;58.29
3254;BME280;1639;42.804;23.342;2022-09-16T12:34:21;71175.41;;;-148.52;56.10
3254;BME280;1639;42.804;23.342;2022-09-16T12:37:02;71177.50;;;-148.52;58.68
3254;BME280;1639;42.804;23.342;2022-09-16T12:39:29;71173.34;;;-148.52;59.20
3254;BME280;1639;42.804;23.342;2022-09-16T12:42:46;71160.94;;;-148.52;57.78
3254;BME280;1639;42.804;23.342;2022-09-16T12:48:05;71154.75;;;-148.52;58.47
3254;BME280;1639;42.804;23.342;2022-09-16T12:50:46;71167.16;;;-148.52;57.62
3254;BME280;1639;42.804;23.342;2022-09-16T13:01:45;71198.16;;;-148.52;58.77
3254;BME280;1639;42.804;23.342;2022-09-16T13:04:16;71208.50;;;-148.52;59.09
3254;BME280;1639;42.804;23.342;2022-09-16T13:06:47;71216.75;;;-148.52;60.24
3254;BME280;1639;42.804;23.342;2022-09-16T13:09:36;71214.69;;;-148.52;60.24
3254;BME280;1639;42.804;23.342;2022-09-16T13:12:05;71235.38;;;-148.52;60.79
3254;BME280;1639;42.804;23.342;2022-09-16T13:14:43;71266.38;;;-148.52;62.50
3254;BME280;1639;42.804;23.342;2022-09-16T13:17:11;71278.78;;;-148.52;63.20
3254;BME280;1639;42.804;23.342;2022-09-16T13:19:44;71297.38;;;-148.52;65.67
3254;BME280;1639;42.804;23.342;2022-09-16T13:25:21;71353.22;;;-148.52;67.91
3254;BME280;1639;42.804;23.342;2022-09-16T13:27:59;71369.75;;;-148.52;71.56
3254;BME280;1639;42.804;23.342;2022-09-16T13:30:37;71365.63;;;-148.52;70.54
3254;BME280;1639;42.804;23.342;2022-09-16T13:35:42;71353.22;;;-148.52;70.15
3254;BME280;1639;42.804;23.342;2022-09-16T13:43:56;71380.09;;;-148.52;72.90
3254;BME280;1639;42.804;23.342;2022-09-16T13:46:31;71400.75;;;-148.52;76.39
3254;BME280;1639;42.804;23.342;2022-09-16T13:51:30;71413.16;;;-148.52;77.03
3254;BME280;1639;42.804;23.342;2022-09-16T13:53:58;71400.75;;;-148.52;77.01
3254;BME280;1639;42.804;23.342;2022-09-16T14:13:43;71353.22;;;-148.52;69.83
3254;BME280;1639;42.804;23.342;2022-09-16T14:16:17;71363.53;;;-148.52;70.49
3254;BME280;1639;42.804;23.342;2022-09-16T14:18:52;71396.63;;;-148.52;71.27
3254;BME280;1639;42.804;23.342;2022-09-16T14:21:21;71392.50;;;-148.52;73.61
3254;BME280;1639;42.804;23.342;2022-09-16T14:23:46;71359.41;;;-148.52;73.24
3254;BME280;1639;42.804;23.342;2022-09-16T14:26:15;71340.81;;;-148.52;71.23
3254;BME280;1639;42.804;23.342;2022-09-16T14:28:40;71351.13;;;-148.52;71.78
3254;BME280;1639;42.804;23.342;2022-09-16T14:31:08;71355.28;;;-148.52;72.08
3254;BME280;1639;42.804;23.342;2022-09-16T14:41:43;71344.94;;;-148.52;72.11
3254;BME280;1639;42.804;23.342;2022-09-16T14:44:20;71316.00;;;-148.52;71.84
3254;BME280;1639;42.804;23.342;2022-09-16T14:46:54;71324.25;;;-148.52;71.71
3254;BME280;1639;42.804;23.342;2022-09-16T14:49:22;71353.22;;;-148.52;70.82
3254;BME280;1639;42.804;23.342;2022-09-16T14:51:59;71353.22;;;-148.52;71.59
3254;BME280;1639;42.804;23.342;2022-09-16T14:54:27;71351.13;;;-148.52;70.85
3254;BME280;1639;42.804;23.342;2022-09-16T14:57:00;71365.63;;;-148.52;71.86
3254;BME280;1639;42.804;23.342;2022-09-16T14:59:37;71367.69;;;-148.52;72.41
3254;BME280;1639;42.804;23.342;2022-09-16T15:04:58;71404.91;;;-148.52;72.71
3254;BME280;1639;42.804;23.342;2022-09-16T15:07:36;71415.22;;;-148.52;74.36
3254;BME280;1639;42.804;23.342;2022-09-16T15:10:13;71400.75;;;-148.52;74.88
3254;BME280;1639;42.804;23.342;2022-09-16T15:12:51;71404.91;;;-148.52;73.85
3254;BME280;1639;42.804;23.342;2022-09-16T15:18:50;71425.56;;;-148.52;74.99
3254;BME280;1639;42.804;23.342;2022-09-16T15:21:24;71413.16;;;-148.52;75.50
3254;BME280;1639;42.804;23.342;2022-09-16T15:23:54;71396.63;;;-148.52;75.58
3254;BME280;1639;42.804;23.342;2022-09-16T15:26:23;71384.22;;;-148.52;73.76
3254;BME280;1639;42.804;23.342;2022-09-16T15:28:57;71382.16;;;-148.52;75.30
3254;BME280;1639;42.804;23.342;2022-09-16T15:31:37;71371.81;;;-148.52;74.19
3254;BME280;1639;42.804;23.342;2022-09-16T15:34:24;71371.81;;;-148.52;76.96
3254;BME280;1639;42.804;23.342;2022-09-16T15:36:55;71359.41;;;-148.52;75.46
3254;BME280;1639;42.804;23.342;2022-09-16T15:39:32;71357.34;;;-148.52;75.59
3254;BME280;1639;42.804;23.342;2022-09-16T15:42:12;71367.69;;;-148.52;74.09
3254;BME280;1639;42.804;23.342;2022-09-16T15:44:52;71396.63;;;-148.52;74.30
3254;BME280;1639;42.804;23.342;2022-09-16T15:49:48;71382.16;;;-148.52;75.27
3254;BME280;1639;42.804;23.342;2022-09-16T15:52:16;71388.34;;;-148.52;75.68
3254;BME280;1639;42.804;23.342;2022-09-16T15:54:49;71384.22;;;-148.52;75.16
3254;BME280;1639;42.804;23.342;2022-09-16T15:57:36;71402.81;;;-148.52;75.45
3254;BME280;1639;42.804;23.342;2022-09-16T16:00:11;71394.56;;;-148.52;75.83
3254;BME280;1639;42.804;23.342;2022-09-16T16:05:21;71380.09;;;-148.52;75.42
3254;BME280;1639;42.804;23.342;2022-09-16T16:07:50;71396.63;;;-148.52;76.00
3254;BME280;1639;42.804;23.342;2022-09-16T16:10:18;71388.34;;;-148.52;75.79
3254;BME280;1639;42.804;23.342;2022-09-16T16:12:46;71392.50;;;-148.52;74.63
3254;BME280;1639;42.804;23.342;2022-09-16T16:15:14;71394.56;;;-148.52;74.92
3254;BME280;1639;42.804;23.342;2022-09-16T16:17:41;71404.91;;;-148.52;74.63
3254;BME280;1639;42.804;23.342;2022-09-16T16:20:07;71417.28;;;-148.52;75.71
3254;BME280;1639;42.804;23.342;2022-09-16T16:22:36;71433.84;;;-148.52;76.93
3254;BME280;1639;42.804;23.342;2022-09-16T16:25:01;71421.44;;;-148.52;76.12
3254;BME280;1639;42.804;23.342;2022-09-16T16:27:27;71425.56;;;-148.52;75.75